Time;durP1;ratioP1;P1;durP2;ratioP2;P2;SDS_P1;SDS_P2;PMS_P1;PMS_P2;Temp;Humidity;BMP_temperature;BMP_pressure;BME280_temperature;BME280_humidity;BME280_pressure;Samples;Min_cycle;Max_cycle;Signal;HPM_P1;HPM_P2
2021/06/23 00:01:57;;;;;;;15.03;3.17;;;;;;;21.06;65.37;99500.48;1661526;86;21077;-72
2021/06/23 00:04:24;;;;;;;15.75;3.37;;;;;;;21.10;65.15;99489.52;1661300;86;21090;-72
2021/06/23 00:06:51;;;;;;;21.55;3.95;;;;;;;21.08;65.26;99498.16;1661576;86;21510;-72
2021/06/23 00:09:18;;;;;;;15.00;3.35;;;;;;;21.03;65.62;99497.03;1661423;86;21166;-73
2021/06/23 00:11:46;;;;;;;13.88;3.60;;;;;;;20.98;65.72;99501.39;1661758;86;21067;-72
2021/06/23 00:14:13;;;;;;;16.73;2.92;;;;;;;21.02;65.40;99502.33;1661534;86;22531;-70
2021/06/23 00:16:43;;;;;;;13.68;3.92;;;;;;;21.08;65.46;99496.78;1661712;86;21023;-71
2021/06/23 00:19:09;;;;;;;13.28;3.27;;;;;;;21.06;65.67;99496.91;1661494;86;21511;-71
2021/06/23 00:21:36;;;;;;;18.42;2.92;;;;;;;20.95;66.35;99492.98;1661799;86;21056;-71
2021/06/23 00:24:03;;;;;;;15.18;3.37;;;;;;;20.85;66.69;99498.41;1661505;86;21062;-71
2021/06/23 00:26:34;;;;;;;14.10;3.70;;;;;;;20.79;66.93;99492.31;1661801;86;21338;-71
2021/06/23 00:29:01;;;;;;;15.78;3.62;;;;;;;20.76;67.15;99494.36;1661494;86;21070;-71
2021/06/23 00:31:28;;;;;;;14.93;4.03;;;;;;;20.60;68.23;99495.39;1661275;86;21633;-71
2021/06/23 00:33:55;;;;;;;11.90;3.55;;;;;;;20.37;69.09;99496.97;1662251;86;21165;-72
2021/06/23 00:36:22;;;;;;;16.20;3.58;;;;;;;20.27;69.80;99503.15;1665915;86;21511;-71
2021/06/23 00:38:49;;;;;;;22.55;4.75;;;;;;;20.20;70.18;99490.43;1666217;86;21027;-70
2021/06/23 00:41:18;;;;;;;18.73;3.67;;;;;;;20.16;70.54;99499.17;1666052;86;21016;-72
2021/06/23 00:43:45;;;;;;;17.50;3.85;;;;;;;20.13;70.96;99494.89;1645190;86;21078;-71
2021/06/23 00:46:12;;;;;;;15.83;4.03;;;;;;;20.06;71.07;99494.64;1666194;86;21050;-71
2021/06/23 00:48:39;;;;;;;11.88;3.55;;;;;;;19.99;71.10;99493.00;1645049;86;21143;-71
2021/06/23 00:51:06;;;;;;;20.55;3.85;;;;;;;19.89;71.26;99490.09;1665869;86;21043;-72
2021/06/23 00:53:51;;;;;;;17.57;3.52;;;;;;;19.77;71.63;99490.84;1666167;86;21023;-71
2021/06/23 00:56:18;;;;;;;17.12;3.98;;;;;;;19.62;72.29;99482.39;1666191;86;21521;-71
2021/06/23 00:58:48;;;;;;;13.83;3.40;;;;;;;19.48;72.91;99485.99;1665949;86;21090;-71
2021/06/23 01:01:16;;;;;;;15.25;3.50;;;;;;;19.40;73.33;99486.25;1666053;86;21047;-71
2021/06/23 01:03:44;;;;;;;17.82;3.83;;;;;;;19.36;73.59;99490.26;1665954;86;21170;-72
2021/06/23 01:06:12;;;;;;;16.05;3.33;;;;;;;19.35;73.88;99487.25;1666031;86;21079;-71
2021/06/23 01:08:38;;;;;;;15.25;3.50;;;;;;;19.37;74.01;99492.45;1623137;86;21046;-72
2021/06/23 01:11:06;;;;;;;13.75;3.45;;;;;;;19.34;74.20;99485.63;1666058;86;21125;-71
2021/06/23 01:13:53;;;;;;;14.20;3.45;;;;;;;19.26;74.32;99485.14;1645213;86;21094;-71
2021/06/23 01:16:20;;;;;;;13.88;3.77;;;;;;;19.25;74.34;99488.22;1666494;86;21012;-71
2021/06/23 01:18:47;;;;;;;13.35;3.52;;;;;;;19.26;74.39;99493.98;1665921;86;21055;-71
2021/06/23 01:21:14;;;;;;;16.00;3.55;;;;;;;19.24;74.57;99494.88;1665929;85;21121;-71
2021/06/23 01:23:42;;;;;;;18.20;3.95;;;;;;;19.19;74.77;99491.77;1665943;86;21114;-71
2021/06/23 01:26:10;;;;;;;17.37;3.75;;;;;;;19.21;74.75;99492.79;1665826;85;21126;-72
2021/06/23 01:28:41;;;;;;;15.53;3.85;;;;;;;19.27;74.53;99488.71;1665118;86;21071;-72
2021/06/23 01:31:09;;;;;;;15.50;3.87;;;;;;;19.30;74.34;99487.47;1664228;86;21075;-71
2021/06/23 01:33:37;;;;;;;10.98;3.37;;;;;;;19.26;74.37;99492.60;1666013;85;21650;-71
2021/06/23 01:36:04;;;;;;;18.07;3.95;;;;;;;19.27;74.43;99486.73;1685783;85;21075;-71
2021/06/23 01:38:31;;;;;;;19.27;3.45;;;;;;;19.30;74.53;99492.98;1693033;85;21079;-71
2021/06/23 01:41:00;;;;;;;12.75;3.30;;;;;;;19.28;74.68;99486.98;1693144;85;21102;-72
2021/06/23 01:43:29;;;;;;;13.58;3.30;;;;;;;19.24;74.84;99494.30;1693280;85;21150;-72
2021/06/23 01:45:57;;;;;;;11.30;3.45;;;;;;;19.17;75.03;99487.12;1692957;85;21066;-71
2021/06/23 01:48:25;;;;;;;14.03;3.58;;;;;;;19.13;75.13;99483.42;1693086;85;21083;-72
2021/06/23 01:50:59;;;;;;;13.50;3.50;;;;;;;19.05;75.32;99482.92;1693296;85;21662;-72
2021/06/23 01:53:34;;;;;;;13.60;3.87;;;;;;;19.05;75.28;99489.00;1693289;85;21062;-72
2021/06/23 01:56:03;;;;;;;13.03;3.33;;;;;;;19.11;75.11;99490.42;1665797;85;21074;-72
2021/06/23 01:58:30;;;;;;;8.35;3.30;;;;;;;19.14;75.05;99488.38;1665662;85;21067;-72
2021/06/23 02:01:33;;;;;;;12.03;3.50;;;;;;;19.12;75.03;99480.45;1665975;85;21537;-71
2021/06/23 02:04:13;;;;;;;12.00;3.35;;;;;;;19.13;74.99;99480.66;1692018;85;21046;-72
2021/06/23 02:06:56;;;;;;;13.93;3.42;;;;;;;19.17;74.86;99477.47;1687676;85;21051;-71
2021/06/23 02:09:56;;;;;;;12.03;3.30;;;;;;;19.14;74.96;99485.05;1692795;85;21059;-70
2021/06/23 02:13:12;;;;;;;12.45;3.37;;;;;;;19.05;75.29;99481.54;1613099;89;21066;-70
2021/06/23 02:15:40;;;;;;;13.75;3.47;;;;;;;19.03;75.55;99487.95;1693016;85;21126;-70
2021/06/23 02:18:08;;;;;;;14.30;3.40;;;;;;;19.05;75.50;99492.58;1692337;85;21081;-71
2021/06/23 02:20:57;;;;;;;12.70;3.77;;;;;;;19.07;75.56;99487.52;1693191;85;21082;-72
2021/06/23 02:23:23;;;;;;;13.18;3.35;;;;;;;19.03;75.78;99492.08;1693034;85;21153;-72
2021/06/23 02:25:51;;;;;;;12.98;3.87;;;;;;;19.03;75.92;99496.22;1693062;85;21071;-71
2021/06/23 02:28:21;;;;;;;15.65;3.98;;;;;;;19.07;75.85;99499.94;1693163;85;21961;-72
2021/06/23 02:30:49;;;;;;;14.35;4.30;;;;;;;19.09;75.91;99492.16;1693025;85;21247;-72
2021/06/23 02:33:17;;;;;;;10.88;4.20;;;;;;;19.07;76.21;99494.42;1692963;85;21063;-69
2021/06/23 02:35:45;;;;;;;18.07;4.45;;;;;;;19.06;76.29;99504.42;1695793;83;21138;-71
2021/06/23 02:38:14;;;;;;;11.63;4.28;;;;;;;19.15;76.11;99503.22;1696464;83;21109;-71
2021/06/23 02:40:40;;;;;;;11.33;4.35;;;;;;;19.26;75.90;99497.56;1666278;86;21614;-72
2021/06/23 02:43:07;;;;;;;11.12;3.62;;;;;;;19.33;75.76;99501.16;1666043;86;21082;-71
2021/06/23 02:45:34;;;;;;;11.83;4.12;;;;;;;19.36;75.46;99506.00;1666350;86;21664;-70
2021/06/23 02:48:00;;;;;;;14.53;4.12;;;;;;;19.43;75.19;99506.88;1666071;86;21126;-71
2021/06/23 02:51:00;;;;;;;10.85;3.83;;;;;;;19.54;74.74;99508.91;1656533;85;21071;-69
2021/06/23 02:53:28;;;;;;;12.70;4.95;;;;;;;19.61;74.27;99513.89;1665944;86;21679;-70
2021/06/23 02:55:55;;;;;;;14.07;6.03;;;;;;;19.66;73.92;99513.70;1665921;86;21113;-70
2021/06/23 02:58:42;;;;;;;13.95;5.22;;;;;;;19.80;73.65;99518.38;1665932;86;21102;-70
2021/06/23 03:01:10;;;;;;;13.25;5.47;;;;;;;19.94;73.14;99527.20;1665888;85;21039;-71
2021/06/23 03:03:40;;;;;;;16.85;5.83;;;;;;;20.03;72.84;99525.15;1665918;86;21122;-71
2021/06/23 03:06:25;;;;;;;15.65;5.08;;;;;;;20.11;72.74;99525.65;1665827;86;21087;-71
2021/06/23 03:08:53;;;;;;;15.05;6.33;;;;;;;20.26;72.32;99524.20;1666080;86;21007;-71
2021/06/23 03:11:21;;;;;;;13.43;6.10;;;;;;;20.43;72.14;99526.81;1664290;86;21050;-71
2021/06/23 03:14:01;;;;;;;16.70;7.20;;;;;;;20.52;72.24;99530.28;1665061;86;21060;-71
2021/06/23 03:16:30;;;;;;;20.30;7.08;;;;;;;20.56;72.21;99522.92;1662209;86;21146;-71
2021/06/23 03:18:57;;;;;;;15.50;6.67;;;;;;;20.67;71.85;99518.56;1666111;85;21664;-72
2021/06/23 03:21:24;;;;;;;16.93;6.78;;;;;;;20.77;71.37;99509.00;1666037;86;21118;-71
2021/06/23 03:23:52;;;;;;;13.93;6.28;;;;;;;20.84;71.06;99511.42;1666151;86;21050;-72
2021/06/23 03:26:21;;;;;;;17.30;6.40;;;;;;;20.90;70.88;99509.26;1665628;86;21565;-72
2021/06/23 03:28:49;;;;;;;17.23;5.45;;;;;;;20.97;71.00;99508.67;1644993;86;21019;-72
2021/06/23 03:31:17;;;;;;;14.28;5.78;;;;;;;21.09;70.84;99505.89;1623202;86;21047;-72
2021/06/23 03:33:45;;;;;;;16.32;5.53;;;;;;;21.15;70.74;99506.72;1665963;86;21122;-72
2021/06/23 03:36:22;;;;;;;14.45;5.60;;;;;;;21.29;70.60;99505.00;1682652;85;21043;-72
2021/06/23 03:38:50;;;;;;;12.88;4.53;;;;;;;21.51;70.18;99501.70;1688159;85;21502;-70
2021/06/23 03:41:17;;;;;;;17.02;4.83;;;;;;;21.78;69.24;99502.34;1693076;85;21097;-70
2021/06/23 03:43:44;;;;;;;14.47;4.35;;;;;;;22.03;68.47;99503.09;1692956;85;21145;-70
2021/06/23 03:46:10;;;;;;;12.85;4.80;;;;;;;22.24;67.80;99500.91;1693238;85;21533;-71
2021/06/23 03:48:38;;;;;;;12.00;4.10;;;;;;;22.42;66.82;99499.19;1665261;85;21075;-71
2021/06/23 03:51:07;;;;;;;14.25;4.47;;;;;;;22.56;66.23;99501.75;1693131;85;21050;-70
2021/06/23 03:53:34;;;;;;;12.90;4.22;;;;;;;22.67;65.60;99493.73;1693131;85;21142;-71
2021/06/23 03:56:03;;;;;;;12.58;4.25;;;;;;;22.76;65.37;99500.70;1692857;85;21075;-71
2021/06/23 03:58:30;;;;;;;13.60;3.90;;;;;;;22.90;65.25;99501.64;1665429;85;21070;-70
2021/06/23 04:00:57;;;;;;;10.20;3.80;;;;;;;23.03;64.49;99500.36;1665546;85;21054;-70
2021/06/23 04:04:08;;;;;;;12.20;4.67;;;;;;;23.26;63.84;99494.96;1819410;79;22567;-61
2021/06/23 04:06:39;;;;;;;16.32;4.40;;;;;;;23.31;63.69;99496.86;1792584;79;21007;-63
2021/06/23 04:09:07;;;;;;;14.93;4.30;;;;;;;23.50;63.50;99499.49;1792787;80;21790;-63
2021/06/23 04:11:34;;;;;;;13.58;3.95;;;;;;;23.76;63.26;99501.88;1761892;80;21006;-63
2021/06/23 04:14:01;;;;;;;17.07;4.47;;;;;;;24.04;61.87;99501.65;1737059;80;21058;-62
2021/06/23 04:16:28;;;;;;;11.80;3.83;;;;;;;24.26;61.59;99504.30;1793208;80;20979;-65
2021/06/23 04:18:55;;;;;;;13.65;3.98;;;;;;;24.51;60.62;99504.17;1792818;80;21046;-65
2021/06/23 04:21:22;;;;;;;10.82;4.03;;;;;;;24.70;60.08;99508.86;1762648;80;21475;-65
2021/06/23 04:23:49;;;;;;;14.18;4.60;;;;;;;24.88;59.90;99503.63;1762201;80;21050;-64
2021/06/23 04:26:16;;;;;;;11.88;3.72;;;;;;;25.12;59.77;99517.95;1761783;80;21070;-65
2021/06/23 04:28:42;;;;;;;13.70;4.33;;;;;;;25.45;58.37;99526.22;1761781;80;21094;-65
2021/06/23 04:31:09;;;;;;;9.60;3.12;;;;;;;25.45;58.37;99526.22;1792259;80;21066;-64
2021/06/23 04:33:36;;;;;;;10.58;3.02;;;;;;;25.61;56.83;99534.64;1761524;80;21592;-63
2021/06/23 04:36:07;;;;;;;13.80;2.60;;;;;;;25.79;55.79;99534.11;1792204;80;21034;-62
2021/06/23 04:38:34;;;;;;;12.47;3.10;;;;;;;25.94;54.55;99535.29;1757058;80;21062;-62
2021/06/23 04:41:01;;;;;;;10.32;2.58;;;;;;;26.04;53.99;99528.26;1761697;80;21054;-62
2021/06/23 04:43:29;;;;;;;8.35;2.60;;;;;;;26.08;53.87;99525.70;1761653;80;21113;-65
2021/06/23 04:45:57;;;;;;;8.75;3.00;;;;;;;26.20;53.54;99519.11;1732329;80;21089;-63
2021/06/23 04:48:24;;;;;;;6.15;2.12;;;;;;;26.37;54.34;99521.28;1757006;80;21086;-63
2021/06/23 04:50:52;;;;;;;12.78;3.22;;;;;;;26.45;53.41;99506.23;1761581;80;21042;-62
2021/06/23 04:53:21;;;;;;;11.63;2.83;;;;;;;26.53;52.46;99507.91;1792014;80;21066;-62
2021/06/23 04:55:49;;;;;;;7.00;2.72;;;;;;;26.60;52.43;99504.39;1792499;80;21088;-63
2021/06/23 04:58:17;;;;;;;7.78;2.70;;;;;;;26.57;52.55;99503.14;1787460;80;21066;-64
2021/06/23 05:00:45;;;;;;;9.23;2.70;;;;;;;26.73;53.08;99505.11;1792015;80;21655;-65
2021/06/23 05:03:15;;;;;;;7.70;2.67;;;;;;;27.02;52.27;99504.79;1788523;79;21620;-64
2021/06/23 05:05:42;;;;;;;12.78;2.42;;;;;;;27.22;52.29;99505.33;1787042;80;21090;-62
2021/06/23 05:08:09;;;;;;;6.95;2.37;;;;;;;27.30;50.46;99496.40;1756135;80;21082;-62
2021/06/23 05:10:35;;;;;;;9.38;2.92;;;;;;;27.19;49.66;99494.34;1787323;80;21043;-62
2021/06/23 05:13:03;;;;;;;8.05;2.42;;;;;;;27.01;50.15;99497.59;1787200;80;21102;-63
2021/06/23 05:15:29;;;;;;;8.55;3.08;;;;;;;26.96;50.62;99492.97;1756419;80;21416;-64
2021/06/23 05:17:56;;;;;;;8.00;2.90;;;;;;;27.04;50.43;99491.22;1755858;80;21046;-64
2021/06/23 05:20:23;;;;;;;7.15;2.50;;;;;;;27.15;50.70;99486.52;1751660;80;20939;-65
2021/06/23 05:22:51;;;;;;;9.05;2.85;;;;;;;27.32;50.67;99494.00;1786863;80;21054;-63
2021/06/23 05:25:18;;;;;;;9.55;2.67;;;;;;;27.46;50.49;99491.33;1786913;80;20975;-64
2021/06/23 05:27:44;;;;;;;8.65;2.62;;;;;;;27.64;50.31;99486.05;1786813;80;21051;-63
2021/06/23 05:30:12;;;;;;;8.08;2.33;;;;;;;27.82;49.28;99494.52;1786843;80;20970;-65
2021/06/23 05:32:38;;;;;;;6.67;3.02;;;;;;;27.97;49.72;99496.78;1786689;80;21636;-63
2021/06/23 05:35:06;;;;;;;7.65;2.60;;;;;;;28.07;49.42;99494.05;1786824;80;21030;-65
2021/06/23 05:37:32;;;;;;;6.70;2.87;;;;;;;28.25;49.33;99493.30;1786588;80;21058;-63
2021/06/23 05:39:59;;;;;;;8.23;2.70;;;;;;;28.44;48.77;99498.56;1756092;80;21027;-63
2021/06/23 05:42:25;;;;;;;9.88;3.15;;;;;;;28.54;49.38;99490.17;1786582;79;21134;-64
2021/06/23 05:44:52;;;;;;;12.75;3.05;;;;;;;28.67;48.65;99485.01;1786726;80;21093;-66
2021/06/23 05:47:19;;;;;;;9.30;2.55;;;;;;;28.76;49.12;99491.63;1786586;79;21058;-65
2021/06/23 05:49:46;;;;;;;10.10;2.90;;;;;;;28.95;48.88;99493.42;1786603;80;21486;-63
2021/06/23 05:52:12;;;;;;;11.57;2.75;;;;;;;29.04;48.21;99491.03;1786671;80;21067;-63
2021/06/23 05:54:39;;;;;;;9.78;2.75;;;;;;;29.18;48.20;99495.02;1786716;80;21027;-63
2021/06/23 05:57:07;;;;;;;6.37;2.37;;;;;;;29.35;48.13;99491.41;1786691;80;21627;-62
2021/06/23 05:59:33;;;;;;;11.55;2.45;;;;;;;29.50;47.60;99489.59;1786527;80;21031;-66
2021/06/23 06:02:00;;;;;;;10.55;2.55;;;;;;;29.50;46.65;99485.38;1786740;80;21581;-63
2021/06/23 06:04:26;;;;;;;9.58;2.90;;;;;;;29.50;46.43;99483.17;1778911;80;21023;-64
2021/06/23 06:06:54;;;;;;;7.97;2.40;;;;;;;29.43;45.76;99478.98;1778384;79;21051;-63
2021/06/23 06:09:20;;;;;;;7.92;2.58;;;;;;;29.41;46.70;99476.58;1778121;81;21086;-64
2021/06/23 06:11:49;;;;;;;7.65;2.30;;;;;;;29.55;46.34;99470.93;1757006;79;21514;-67
2021/06/23 06:14:16;;;;;;;7.62;2.70;;;;;;;29.64;46.50;99469.11;1778151;81;21146;-65
2021/06/23 06:16:42;;;;;;;9.98;2.58;;;;;;;29.65;46.27;99468.69;1778499;81;21803;-66
2021/06/23 06:19:09;;;;;;;9.08;2.22;;;;;;;29.53;45.33;99468.34;1778118;81;21063;-65
2021/06/23 06:21:35;;;;;;;11.10;2.20;;;;;;;29.42;45.35;99466.16;1778289;81;21032;-67
2021/06/23 06:24:02;;;;;;;7.10;2.52;;;;;;;29.43;45.22;99472.78;1778304;81;21031;-65
2021/06/23 06:26:29;;;;;;;7.08;2.27;;;;;;;29.45;44.84;99471.77;1778079;81;21046;-66
2021/06/23 06:28:56;;;;;;;7.80;2.22;;;;;;;29.46;44.67;99476.77;1778094;81;21071;-66
2021/06/23 06:31:24;;;;;;;5.95;2.17;;;;;;;29.44;45.19;99470.78;1778292;81;21019;-65
2021/06/23 06:33:51;;;;;;;5.20;2.40;;;;;;;29.49;44.27;99469.75;1778262;81;21592;-65
2021/06/23 06:36:19;;;;;;;8.53;2.55;;;;;;;29.53;44.33;99464.13;1778716;81;20984;-64
2021/06/23 06:38:46;;;;;;;8.85;2.25;;;;;;;29.52;45.00;99461.13;1778291;81;21093;-65
2021/06/23 06:41:12;;;;;;;5.65;2.22;;;;;;;29.55;44.98;99472.93;1778483;81;21471;-65
2021/06/23 06:43:38;;;;;;;11.97;2.50;;;;;;;29.58;45.99;99470.11;1778281;81;21122;-64
2021/06/23 06:46:05;;;;;;;6.90;1.95;;;;;;;29.58;44.80;99469.34;1778367;81;21035;-64
2021/06/23 06:48:31;;;;;;;8.60;2.20;;;;;;;29.46;45.15;99466.95;1778111;81;21612;-64
2021/06/23 06:50:59;;;;;;;8.28;2.00;;;;;;;29.46;45.48;99459.35;1778376;81;21004;-64
2021/06/23 06:53:25;;;;;;;6.85;2.22;;;;;;;29.47;44.91;99465.16;1778199;81;21031;-64
2021/06/23 06:55:52;;;;;;;9.43;1.90;;;;;;;29.44;44.97;99458.94;1778471;81;20987;-64
2021/06/23 06:58:18;;;;;;;10.35;2.27;;;;;;;29.50;45.38;99459.34;1778175;81;21605;-63
2021/06/23 07:00:45;;;;;;;10.00;2.50;;;;;;;29.65;44.67;99449.69;1778547;81;21012;-65
2021/06/23 07:03:11;;;;;;;8.38;2.10;;;;;;;29.79;45.59;99455.23;1780332;80;21094;-64
2021/06/23 07:05:38;;;;;;;8.05;2.47;;;;;;;29.92;44.97;99440.97;1786615;80;21493;-64
2021/06/23 07:08:05;;;;;;;7.78;1.95;;;;;;;30.07;44.80;99437.48;1786351;80;21075;-66
2021/06/23 07:10:32;;;;;;;7.53;2.37;;;;;;;30.24;44.40;99439.98;1786467;80;21062;-63
2021/06/23 07:12:59;;;;;;;10.45;2.22;;;;;;;30.44;44.97;99439.66;1786528;79;21422;-66
2021/06/23 07:15:25;;;;;;;8.18;2.37;;;;;;;30.76;43.99;99437.41;1786720;80;21509;-66
2021/06/23 07:17:52;;;;;;;6.65;1.98;;;;;;;30.81;42.65;99436.98;1786709;80;21560;-66
2021/06/23 07:20:19;;;;;;;9.75;1.98;;;;;;;30.76;43.59;99433.80;1786427;80;21008;-66
2021/06/23 07:22:45;;;;;;;8.05;2.20;;;;;;;30.68;42.70;99435.09;1786752;80;21581;-63
2021/06/23 07:25:13;;;;;;;11.57;1.72;;;;;;;30.63;42.57;99439.13;1786771;80;21002;-66
2021/06/23 07:27:39;;;;;;;6.33;1.50;;;;;;;30.58;42.13;99440.96;1786587;79;21026;-66
2021/06/23 07:30:07;;;;;;;5.45;1.67;;;;;;;30.48;40.80;99442.66;1786505;80;21027;-64
2021/06/23 07:32:58;;;;;;;8.85;2.17;;;;;;;30.50;40.19;99454.89;1786538;80;21046;-62
2021/06/23 07:38:08;;;;;;;8.30;1.82;;;;;;;30.66;40.05;99452.34;1786500;80;21074;-63
2021/06/23 07:40:54;;;;;;;8.35;1.62;;;;;;;30.81;39.91;99460.86;1786420;80;21492;-64
2021/06/23 07:43:19;;;;;;;7.92;1.77;;;;;;;30.88;40.41;99455.18;1786659;80;21393;-63
2021/06/23 07:45:49;;;;;;;8.50;1.50;;;;;;;30.97;40.19;99463.95;1786579;80;21443;-64
2021/06/23 07:48:14;;;;;;;4.97;1.75;;;;;;;30.99;39.79;99458.73;1786360;80;21527;-62
2021/06/23 07:50:51;;;;;;;2.95;1.80;;;;;;;30.97;39.25;99462.55;1786512;80;21010;-63
2021/06/23 07:53:22;;;;;;;11.43;1.92;;;;;;;30.96;39.46;99469.34;1786090;80;21071;-63
2021/06/23 07:55:52;;;;;;;7.92;2.00;;;;;;;30.97;38.91;99465.95;1785288;80;21066;-63
2021/06/23 08:13:45;;;;;;;5.37;2.65;;;;;;;31.65;39.43;99466.89;1778167;81;21044;-65
2021/06/23 08:16:12;;;;;;;10.63;2.85;;;;;;;31.82;39.06;99459.44;1756158;81;21070;-66
2021/06/23 08:18:40;;;;;;;12.90;2.83;;;;;;;31.92;39.39;99460.72;1756748;80;21039;-63
2021/06/23 08:21:07;;;;;;;8.43;2.25;;;;;;;31.99;38.46;99460.63;1778279;81;21363;-63
2021/06/23 08:23:33;;;;;;;6.72;2.33;;;;;;;32.03;37.42;99461.98;1778174;81;21075;-63
2021/06/23 08:25:59;;;;;;;7.90;2.10;;;;;;;32.02;37.01;99464.02;1778051;81;21019;-64
2021/06/23 08:28:26;;;;;;;4.45;1.92;;;;;;;31.96;37.83;99468.51;1778342;81;21016;-64
2021/06/23 08:30:52;;;;;;;8.85;2.22;;;;;;;31.85;37.71;99472.70;1778099;81;21031;-63
2021/06/23 08:33:19;;;;;;;6.20;1.60;;;;;;;31.79;37.40;99470.14;1778342;81;20991;-63
2021/06/23 08:35:45;;;;;;;5.83;1.70;;;;;;;31.78;38.02;99472.16;1778174;81;21082;-65
2021/06/23 08:38:12;;;;;;;8.53;2.20;;;;;;;31.65;37.99;99462.67;1778261;79;21142;-64
2021/06/23 08:40:38;;;;;;;8.53;2.00;;;;;;;31.55;38.16;99463.00;1751260;81;21024;-65
2021/06/23 08:43:05;;;;;;;6.92;2.00;;;;;;;31.55;39.38;99467.81;1778227;79;21127;-64
2021/06/23 08:45:31;;;;;;;5.08;1.80;;;;;;;31.51;38.37;99463.64;1778133;81;21011;-65
2021/06/23 08:47:58;;;;;;;3.42;2.00;;;;;;;31.54;39.22;99462.80;1778424;79;21479;-64
2021/06/23 08:50:24;;;;;;;6.37;2.12;;;;;;;31.57;39.49;99456.93;1778352;81;21059;-63
2021/06/23 08:52:51;;;;;;;9.95;2.25;;;;;;;31.54;39.03;99457.17;1778686;79;21542;-63
2021/06/23 08:55:23;;;;;;;6.37;1.75;;;;;;;31.49;39.29;99448.38;1778433;81;21023;-63
2021/06/23 08:57:51;;;;;;;4.55;1.70;;;;;;;31.50;38.95;99451.36;1777023;80;21094;-63
2021/06/23 09:00:18;;;;;;;7.65;1.87;;;;;;;31.60;40.44;99453.30;1778291;81;21534;-63
2021/06/23 09:02:45;;;;;;;6.40;2.08;;;;;;;31.72;39.07;99451.33;1778384;79;21592;-63
2021/06/23 09:05:13;;;;;;;6.03;2.00;;;;;;;31.83;39.24;99450.59;1785118;80;21054;-63
2021/06/23 09:07:48;;;;;;;7.65;2.17;;;;;;;31.89;39.44;99448.90;1786696;79;21034;-63
2021/06/23 09:10:25;;;;;;;6.95;2.12;;;;;;;32.00;38.94;99448.15;1786541;80;21026;-63
2021/06/23 09:13:07;;;;;;;6.28;2.22;;;;;;;32.06;39.76;99452.11;1786772;79;21549;-62
2021/06/23 09:16:00;;;;;;;9.43;1.90;;;;;;;32.18;39.11;99452.16;1786550;80;21051;-64
2021/06/23 09:18:34;;;;;;;7.85;2.00;;;;;;;32.27;38.21;99447.42;1785805;79;21560;-63
2021/06/23 09:21:18;;;;;;;7.35;1.82;;;;;;;32.44;38.93;99449.17;1786789;80;21042;-65
2021/06/23 09:23:56;;;;;;;3.83;1.98;;;;;;;32.65;38.15;99450.27;1756110;80;21071;-64
2021/06/23 09:26:30;;;;;;;7.50;1.90;;;;;;;32.78;37.38;99453.27;1786874;80;20963;-64
2021/06/23 09:29:14;;;;;;;5.60;1.82;;;;;;;32.86;37.32;99448.51;1785838;79;21655;-66
2021/06/23 09:31:55;;;;;;;6.85;1.92;;;;;;;32.92;36.03;99449.60;1786754;80;21526;-64
2021/06/23 09:34:24;;;;;;;9.13;2.02;;;;;;;32.97;35.76;99444.89;1786765;80;21089;-64
2021/06/23 09:36:50;;;;;;;5.97;1.98;;;;;;;33.08;35.21;99451.75;1787003;80;20988;-63
2021/06/23 09:39:19;;;;;;;9.95;2.30;;;;;;;33.23;36.05;99450.92;1786761;80;21682;-63
2021/06/23 09:41:46;;;;;;;6.97;1.98;;;;;;;33.41;36.70;99459.81;1786799;80;20971;-66
2021/06/23 09:44:14;;;;;;;6.12;1.60;;;;;;;33.56;33.77;99463.95;1727557;80;21098;-63
2021/06/23 09:46:46;;;;;;;9.43;2.45;;;;;;;33.58;33.30;99457.28;1786731;80;20999;-64
2021/06/23 09:49:21;;;;;;;8.80;2.20;;;;;;;33.56;33.92;99454.08;1786608;80;21074;-63
2021/06/23 09:51:53;;;;;;;6.65;2.02;;;;;;;33.60;34.50;99454.02;1786777;80;20960;-62
2021/06/23 09:54:29;;;;;;;5.60;1.87;;;;;;;33.63;34.92;99464.45;1786661;80;21007;-64
2021/06/23 09:57:12;;;;;;;5.55;1.98;;;;;;;33.74;33.78;99451.73;1786616;80;21003;-64
2021/06/23 09:59:40;;;;;;;5.80;1.90;;;;;;;33.80;34.91;99454.22;1786657;80;21065;-64
2021/06/23 10:02:27;;;;;;;7.03;1.90;;;;;;;33.93;33.77;99447.31;1786760;80;21050;-63
2021/06/23 10:04:55;;;;;;;7.75;2.02;;;;;;;33.90;34.40;99453.22;1786486;80;21077;-64
2021/06/23 10:07:45;;;;;;;9.05;2.33;;;;;;;33.99;35.07;99459.67;1786819;80;21049;-64
2021/06/23 10:10:16;;;;;;;6.10;2.00;;;;;;;34.08;35.60;99455.66;1786607;80;21514;-64
2021/06/23 10:12:43;;;;;;;6.72;1.80;;;;;;;34.21;36.19;99463.66;1786758;80;21545;-64
2021/06/23 10:15:11;;;;;;;11.12;2.17;;;;;;;34.37;34.66;99467.92;1786375;80;21059;-65
2021/06/23 10:17:38;;;;;;;9.00;2.45;;;;;;;34.45;33.35;99467.14;1751719;80;21097;-65
2021/06/23 10:20:06;;;;;;;9.18;2.35;;;;;;;34.37;33.02;99464.30;1755901;80;21600;-64
2021/06/23 10:22:33;;;;;;;7.30;2.08;;;;;;;34.24;33.51;99463.39;1786685;80;21078;-64
2021/06/23 10:25:04;;;;;;;6.42;1.92;;;;;;;34.15;34.72;99467.44;1755598;80;21892;-63
2021/06/23 10:27:30;;;;;;;8.50;2.05;;;;;;;34.11;34.16;99461.84;1748570;82;21043;-63
2021/06/23 10:29:59;;;;;;;7.35;2.00;;;;;;;34.05;34.42;99459.33;1781608;80;21560;-63
2021/06/23 10:32:25;;;;;;;10.85;2.60;;;;;;;33.88;35.57;99450.02;1786811;80;21063;-63
2021/06/23 10:34:52;;;;;;;9.03;1.98;;;;;;;33.96;35.36;99457.12;1786622;80;21034;-63
2021/06/23 10:37:21;;;;;;;13.95;3.15;;;;;;;33.97;36.01;99460.13;1786678;80;21062;-63
2021/06/23 10:39:49;;;;;;;12.50;2.22;;;;;;;34.00;35.96;99463.48;1786516;80;21510;-63
2021/06/23 10:42:15;;;;;;;9.18;2.35;;;;;;;33.95;36.29;99464.59;1786679;80;21046;-63
2021/06/23 10:44:47;;;;;;;7.72;2.22;;;;;;;33.91;35.79;99459.03;1786590;80;21050;-64
2021/06/23 10:47:38;;;;;;;12.68;3.35;;;;;;;33.80;36.33;99468.33;1786717;80;21003;-61
2021/06/23 10:50:32;;;;;;;8.80;2.77;;;;;;;33.69;36.21;99464.95;1786593;80;21651;-63
2021/06/23 10:53:00;;;;;;;10.63;2.52;;;;;;;33.65;37.50;99465.64;1786574;80;21067;-61
2021/06/23 10:55:32;;;;;;;14.35;3.05;;;;;;;33.76;37.13;99469.66;1786348;80;21054;-61
2021/06/23 10:58:09;;;;;;;7.28;2.62;;;;;;;33.90;36.69;99466.54;1786589;80;21051;-62
2021/06/23 11:00:36;;;;;;;9.28;2.50;;;;;;;34.00;36.38;99464.90;1786371;80;21023;-62
2021/06/23 11:03:06;;;;;;;15.00;2.65;;;;;;;34.09;36.33;99469.14;1786502;80;21039;-61
2021/06/23 11:05:48;;;;;;;7.50;2.52;;;;;;;34.10;35.59;99472.95;1780375;80;21063;-62
2021/06/23 11:08:34;;;;;;;11.55;2.60;;;;;;;34.13;35.40;99471.30;1756722;81;21049;-63
2021/06/23 11:11:05;;;;;;;13.78;2.42;;;;;;;34.15;35.46;99471.06;1778560;81;21007;-64
2021/06/23 11:13:38;;;;;;;10.15;2.70;;;;;;;34.28;35.06;99477.63;1778352;81;20988;-64
2021/06/23 11:16:06;;;;;;;10.60;2.92;;;;;;;34.36;34.95;99470.59;1778365;81;21035;-65
2021/06/23 11:18:41;;;;;;;18.12;3.00;;;;;;;34.35;34.16;99471.02;1778286;81;21019;-63
2021/06/23 11:21:21;;;;;;;15.38;3.52;;;;;;;34.29;34.22;99470.75;1778317;81;21039;-64
2021/06/23 11:23:58;;;;;;;12.98;2.92;;;;;;;34.33;34.63;99476.32;1778381;81;21637;-62
2021/06/23 11:26:30;;;;;;;17.25;3.42;;;;;;;34.45;34.08;99475.00;1778326;81;21000;-62
2021/06/23 11:29:14;;;;;;;13.55;2.83;;;;;;;34.57;33.07;99483.42;1778436;81;21043;-63
2021/06/23 11:32:03;;;;;;;12.25;3.17;;;;;;;34.62;33.27;99477.25;1778103;79;21027;-62
2021/06/23 11:34:43;;;;;;;18.57;3.40;;;;;;;34.78;33.69;99477.28;1778208;81;21066;-59
2021/06/23 11:37:15;;;;;;;15.83;3.17;;;;;;;34.87;33.87;99468.96;1778472;79;21375;-65
2021/06/23 11:39:42;;;;;;;15.08;3.10;;;;;;;34.95;33.40;99473.20;1777920;80;21102;-66
2021/06/23 11:42:10;;;;;;;20.75;4.15;;;;;;;34.98;33.81;99475.76;1778173;81;21561;-62
2021/06/23 11:44:38;;;;;;;22.62;4.25;;;;;;;34.98;33.76;99475.76;1778457;81;21027;-61
2021/06/23 11:47:06;;;;;;;18.65;4.28;;;;;;;34.95;32.16;99471.80;1778202;81;21067;-62
2021/06/23 11:49:34;;;;;;;27.37;4.53;;;;;;;34.92;33.12;99467.03;1778368;81;21048;-63
2021/06/23 11:52:02;;;;;;;25.23;4.97;;;;;;;34.98;32.89;99468.69;1778071;79;21059;-64
2021/06/23 11:54:28;;;;;;;19.55;4.20;;;;;;;35.08;32.90;99476.72;1778332;81;21062;-63
2021/06/23 11:56:54;;;;;;;21.23;4.45;;;;;;;35.12;33.03;99471.80;1778263;79;21490;-64
2021/06/23 11:59:21;;;;;;;20.80;4.08;;;;;;;35.14;33.23;99472.97;1778274;81;21047;-64
2021/06/23 12:01:49;;;;;;;17.27;3.60;;;;;;;35.16;33.36;99473.92;1756241;81;21533;-64